createdAt,value
2019-02-23T00:00:40.888Z,13.27
2019-02-23T00:03:29.154Z,12.77
2019-02-23T00:06:28.808Z,14.73
2019-02-23T00:09:07.322Z,13.77
2019-02-23T00:11:55.523Z,14.17
2019-02-23T00:14:44.247Z,15.07
2019-02-23T00:17:32.456Z,12.80
2019-02-23T00:20:20.886Z,14.50
2019-02-23T00:23:09.337Z,12.40
2019-02-23T00:25:57.522Z,11.80
2019-02-23T00:28:45.715Z,11.63
2019-02-23T00:31:33.899Z,15.93
2019-02-23T00:34:22.350Z,15.80
2019-02-23T00:37:10.550Z,13.40
2019-02-23T00:39:58.755Z,15.40
2019-02-23T00:42:46.923Z,14.93
2019-02-23T00:45:27.798Z,15.00
2019-02-23T00:48:08.910Z,14.00
2019-02-23T00:50:49.759Z,14.00
2019-02-23T00:53:30.487Z,14.00
2019-02-23T00:56:11.252Z,13.30
2019-02-23T00:58:52.858Z,15.40
2019-02-23T01:01:33.704Z,12.27
2019-02-23T01:04:14.990Z,16.90
2019-02-23T01:06:56.155Z,14.23
2019-02-23T01:09:37.255Z,16.47
2019-02-23T01:12:18.610Z,20.70
2019-02-23T01:14:59.455Z,15.00
2019-02-23T01:17:40.167Z,14.60
2019-02-23T01:20:20.677Z,15.90
2019-02-23T01:23:01.535Z,14.00
2019-02-23T01:25:42.358Z,13.97
2019-02-23T01:28:22.820Z,15.73
2019-02-23T01:31:03.791Z,15.37
2019-02-23T01:33:44.854Z,14.70
2019-02-23T01:36:25.263Z,12.50
2019-02-23T01:39:06.295Z,14.13
2019-02-23T01:41:46.891Z,13.83
2019-02-23T01:44:27.617Z,12.13
2019-02-23T01:47:08.392Z,15.27
2019-02-23T01:49:58.604Z,13.33
2019-02-23T01:52:32.079Z,14.10
2019-02-23T01:55:13.028Z,15.80
2019-02-23T01:57:53.586Z,12.80
2019-02-23T02:00:34.170Z,10.60
2019-02-23T02:03:15.045Z,13.43
2019-02-23T02:05:56.417Z,12.40
2019-02-23T02:08:37.538Z,16.97
2019-02-23T02:11:18.331Z,16.30
2019-02-23T02:13:59.038Z,14.10
2019-02-23T02:16:40.098Z,14.37
2019-02-23T02:19:20.563Z,14.20
2019-02-23T02:22:01.718Z,14.10
2019-02-23T02:24:42.106Z,15.77
2019-02-23T02:27:22.886Z,14.33
2019-02-23T02:30:03.484Z,17.10
2019-02-23T02:32:44.358Z,15.03
2019-02-23T02:35:25.715Z,15.00
2019-02-23T02:38:06.331Z,13.50
2019-02-23T02:40:47.279Z,12.03
2019-02-23T02:43:28.542Z,12.87
2019-02-23T02:46:09.846Z,14.60
2019-02-23T02:48:50.300Z,15.47
2019-02-23T02:51:31.331Z,14.33
2019-02-23T02:54:11.867Z,14.23
2019-02-23T02:56:53.146Z,15.67
2019-02-23T02:59:34.184Z,14.27
2019-02-23T03:02:14.955Z,15.03
2019-02-23T03:04:56.005Z,15.13
2019-02-23T03:07:25.395Z,17.30
2019-02-23T03:10:13.583Z,14.10
2019-02-23T03:13:01.784Z,15.13
2019-02-23T03:15:49.963Z,15.27
2019-02-23T03:18:38.179Z,16.40
2019-02-23T03:21:26.385Z,14.60
2019-02-23T03:24:14.595Z,17.50
2019-02-23T03:27:02.908Z,18.67
2019-02-23T03:29:51.090Z,14.10
2019-02-23T03:32:39.309Z,15.40
2019-02-23T03:35:27.504Z,17.37
2019-02-23T03:38:15.790Z,15.50
2019-02-23T03:41:04.311Z,15.87
2019-02-23T03:43:52.457Z,16.43
2019-02-23T03:46:40.905Z,19.20
2019-02-23T03:49:29.143Z,16.70
2019-02-23T03:52:17.414Z,19.10
2019-02-23T03:55:05.742Z,15.53
2019-02-23T03:57:46.895Z,16.67
2019-02-23T04:00:27.456Z,20.70
2019-02-23T04:03:08.261Z,15.33
2019-02-23T04:05:49.660Z,16.10
2019-02-23T04:08:30.579Z,17.57
2019-02-23T04:11:11.352Z,17.30
2019-02-23T04:13:52.273Z,14.20
2019-02-23T04:16:33.397Z,18.37
2019-02-23T04:19:14.872Z,18.63
2019-02-23T04:21:55.335Z,19.20
2019-02-23T04:24:36.100Z,19.83
2019-02-23T04:27:17.184Z,18.80
2019-02-23T04:29:47.117Z,20.83
2019-02-23T04:32:36.295Z,18.80
2019-02-23T04:35:24.769Z,18.30
2019-02-23T04:38:12.914Z,21.50
2019-02-23T04:41:01.110Z,24.30
2019-02-23T04:43:49.331Z,24.37
2019-02-23T04:46:37.678Z,20.77
2019-02-23T04:49:26.186Z,24.87
2019-02-23T04:52:15.752Z,24.27
2019-02-23T04:55:04.831Z,22.80
2019-02-23T04:57:33.948Z,21.30
2019-02-23T05:00:22.140Z,25.43
2019-02-23T05:03:10.357Z,21.57
2019-02-23T05:05:58.555Z,21.47
2019-02-23T05:08:46.775Z,22.63
2019-02-23T05:11:34.967Z,25.53
2019-02-23T05:14:23.170Z,21.30
2019-02-23T05:17:10.917Z,26.23
2019-02-23T05:19:58.803Z,23.73
2019-02-23T05:22:47.018Z,26.63
2019-02-23T05:25:35.561Z,24.33
2019-02-23T05:28:23.773Z,22.63
2019-02-23T05:31:12.048Z,25.43
2019-02-23T05:34:00.263Z,23.50
2019-02-23T05:36:48.465Z,24.17
2019-02-23T05:39:36.677Z,25.03
2019-02-23T05:42:24.884Z,22.73
2019-02-23T05:45:13.092Z,26.67
2019-02-23T05:47:53.985Z,24.03
2019-02-23T05:50:35.106Z,23.00
2019-02-23T05:53:16.121Z,21.23
2019-02-23T05:55:57.113Z,25.90
2019-02-23T05:58:37.851Z,27.13
2019-02-23T06:01:18.348Z,24.23
2019-02-23T06:03:59.269Z,23.40
2019-02-23T06:06:40.867Z,25.57
2019-02-23T06:09:21.455Z,25.13
2019-02-23T06:12:02.672Z,22.00
2019-02-23T06:14:43.576Z,22.30
2019-02-23T06:17:24.429Z,23.20
2019-02-23T06:20:05.820Z,26.27
2019-02-23T06:22:47.046Z,27.33
2019-02-23T06:25:28.457Z,24.90
2019-02-23T06:28:09.423Z,24.30
2019-02-23T06:30:50.410Z,23.20
2019-02-23T06:33:31.560Z,23.70
2019-02-23T06:36:11.995Z,26.07
2019-02-23T06:38:52.983Z,25.47
2019-02-23T06:41:34.008Z,23.00
2019-02-23T06:44:14.708Z,23.77
2019-02-23T06:46:55.255Z,22.50
2019-02-23T06:49:36.207Z,22.90
2019-02-23T06:52:17.179Z,22.37
2019-02-23T06:54:58.481Z,24.80
2019-02-23T06:57:39.327Z,20.53
2019-02-23T07:00:20.136Z,24.70
2019-02-23T07:03:01.029Z,21.47
2019-02-23T07:05:42.191Z,22.70
2019-02-23T07:08:22.917Z,31.27
2019-02-23T07:10:52.393Z,26.07
2019-02-23T07:13:40.580Z,23.10
2019-02-23T07:16:28.792Z,24.27
2019-02-23T07:19:17.272Z,22.70
2019-02-23T07:22:14.982Z,23.20
2019-02-23T07:24:48.427Z,25.13
2019-02-23T07:27:29.376Z,23.20
2019-02-23T07:30:10.300Z,24.57
2019-02-23T07:32:51.155Z,25.67
2019-02-23T07:35:32.344Z,22.47
2019-02-23T07:38:13.229Z,20.07
2019-02-23T07:40:54.071Z,27.77
2019-02-23T07:43:35.336Z,23.73
2019-02-23T07:46:17.056Z,23.97
2019-02-23T07:48:58.225Z,24.47
2019-02-23T07:51:39.768Z,21.03
2019-02-23T07:54:21.033Z,22.73
2019-02-23T07:57:01.469Z,19.87
2019-02-23T07:59:30.585Z,23.27
2019-02-23T08:02:18.859Z,21.87
2019-02-23T08:05:07.659Z,19.87
2019-02-23T08:07:55.923Z,24.37
2019-02-23T08:10:44.152Z,23.93
2019-02-23T08:13:32.631Z,23.03
2019-02-23T08:16:21.102Z,22.47
2019-02-23T08:19:09.302Z,20.83
2019-02-23T08:21:57.459Z,23.23
2019-02-23T08:24:37.855Z,20.73
2019-02-23T08:27:18.728Z,21.10
2019-02-23T08:29:59.600Z,20.57
2019-02-23T08:32:40.388Z,18.87
2019-02-23T08:35:21.647Z,21.67
2019-02-23T08:38:02.844Z,20.23
2019-02-23T08:40:43.800Z,21.73
2019-02-23T08:43:24.948Z,18.30
2019-02-23T08:46:06.382Z,19.77
2019-02-23T08:48:47.072Z,18.10
2019-02-23T08:51:27.552Z,22.00
2019-02-23T08:54:08.951Z,16.23
2019-02-23T08:56:49.651Z,18.57
2019-02-23T08:59:30.325Z,20.73
2019-02-23T09:02:11.163Z,18.87
2019-02-23T09:04:51.963Z,18.37
2019-02-23T09:07:21.055Z,15.00
2019-02-23T09:10:09.976Z,19.30
2019-02-23T09:12:58.164Z,20.37
2019-02-23T09:15:27.271Z,20.13
2019-02-23T09:18:15.467Z,15.60
2019-02-23T09:21:03.771Z,18.63
2019-02-23T09:23:51.968Z,16.20
2019-02-23T09:26:40.483Z,16.13
2019-02-23T09:29:28.686Z,18.60
2019-02-23T09:32:16.932Z,15.13
2019-02-23T09:35:05.195Z,14.10
2019-02-23T09:37:53.784Z,15.70
2019-02-23T09:40:42.024Z,15.00
2019-02-23T09:43:30.309Z,15.60
2019-02-23T09:46:18.522Z,20.00
2019-02-23T09:49:06.738Z,14.43
2019-02-23T09:51:54.964Z,17.90
2019-02-23T09:54:43.156Z,18.27
2019-02-23T09:57:31.392Z,14.93
2019-02-23T10:00:00.788Z,19.10
2019-02-23T10:02:49.019Z,15.83
2019-02-23T10:05:38.187Z,17.10
2019-02-23T10:08:27.496Z,14.20
2019-02-23T10:11:15.732Z,19.00
2019-02-23T10:14:03.952Z,17.30
2019-02-23T10:16:52.448Z,17.83
2019-02-23T10:19:40.651Z,18.07
2019-02-23T10:22:28.880Z,13.97
2019-02-23T10:25:17.157Z,13.90
2019-02-23T10:28:05.395Z,16.50
2019-02-23T10:30:53.899Z,13.53
2019-02-23T10:36:49.691Z,22.10
2019-02-23T10:39:38.147Z,19.10
2019-02-23T10:42:26.706Z,17.57
2019-02-23T10:45:14.919Z,17.57
2019-02-23T10:48:03.491Z,17.57
2019-02-23T10:50:51.696Z,19.17
2019-02-23T10:53:39.904Z,15.70
2019-02-23T10:56:28.115Z,14.63
2019-02-23T10:59:09.290Z,20.03
2019-02-23T11:01:50.296Z,16.37
2019-02-23T11:04:31.363Z,15.20
2019-02-23T11:07:12.294Z,16.17
2019-02-23T11:09:53.107Z,17.93
2019-02-23T11:12:34.056Z,13.73
2019-02-23T11:15:16.556Z,14.23
2019-02-23T11:17:57.318Z,14.13
2019-02-23T11:20:38.935Z,16.00
2019-02-23T11:23:20.043Z,14.13
2019-02-23T11:26:01.584Z,13.33
2019-02-23T11:28:42.240Z,13.77
2019-02-23T11:31:22.678Z,12.53
2019-02-23T11:34:03.468Z,16.53
2019-02-23T11:36:44.179Z,14.97
2019-02-23T11:39:24.979Z,17.00
2019-02-23T11:42:05.801Z,16.37
2019-02-23T11:44:46.303Z,19.37
2019-02-23T11:47:27.124Z,15.40
2019-02-23T11:50:08.400Z,12.77
2019-02-23T11:52:49.644Z,11.30
2019-02-23T11:55:30.111Z,11.07
2019-02-23T11:58:10.836Z,14.10
2019-02-23T12:00:39.923Z,13.77
2019-02-23T12:03:09.406Z,12.43
2019-02-23T12:05:57.607Z,11.30
2019-02-23T12:08:45.827Z,13.33
2019-02-23T12:11:34.037Z,12.07
2019-02-23T12:14:22.275Z,11.00
2019-02-23T12:17:10.785Z,16.43
2019-02-23T12:19:58.984Z,12.87
2019-02-23T12:22:47.214Z,9.30
2019-02-23T12:25:35.668Z,13.53
2019-02-23T12:28:23.883Z,14.63
2019-02-23T12:31:12.107Z,16.90
2019-02-23T12:34:00.346Z,11.97
2019-02-23T12:36:48.534Z,10.10
2019-02-23T12:39:36.763Z,11.80
2019-02-23T12:42:27.454Z,8.97
2019-02-23T12:44:55.772Z,12.73
2019-02-23T12:47:43.988Z,12.03
2019-02-23T12:50:33.405Z,10.87
2019-02-23T12:53:22.127Z,10.60
2019-02-23T12:56:10.316Z,11.53
2019-02-23T12:58:51.065Z,12.20
2019-02-23T13:01:32.336Z,13.37
2019-02-23T13:04:13.436Z,11.57
2019-02-23T13:06:54.760Z,14.50
2019-02-23T13:09:29.339Z,10.60
2019-02-23T13:12:36.627Z,12.77
2019-02-23T13:15:43.941Z,13.60
2019-02-23T13:18:51.600Z,13.40
2019-02-23T13:21:58.891Z,13.53
2019-02-23T13:24:53.132Z,9.80
2019-02-23T13:28:00.452Z,12.47
2019-02-23T13:31:08.176Z,10.80
2019-02-23T13:34:15.551Z,11.40
2019-02-23T13:37:07.498Z,11.00
2019-02-23T13:40:14.900Z,11.63
2019-02-23T13:43:22.196Z,9.73
2019-02-23T13:46:29.933Z,9.27
2019-02-23T13:49:37.359Z,12.13
2019-02-23T13:52:44.663Z,10.77
2019-02-23T13:55:51.972Z,9.40
2019-02-23T13:58:32.629Z,8.53
2019-02-23T14:01:13.724Z,13.17
2019-02-23T14:04:30.020Z,13.63
2019-02-23T14:07:37.831Z,11.17
2019-02-23T14:10:45.235Z,9.40
2019-02-23T14:13:36.712Z,9.77
2019-02-23T14:16:44.028Z,9.53
2019-02-23T14:19:51.619Z,11.47
2019-02-23T14:22:46.380Z,10.90
2019-02-23T14:25:53.733Z,14.17
2019-02-23T14:29:01.056Z,10.00
2019-02-23T14:32:08.371Z,10.87
2019-02-23T14:35:01.307Z,16.50
2019-02-23T14:38:08.599Z,8.40
2019-02-23T14:41:16.237Z,11.60
2019-02-23T14:44:11.952Z,9.93
2019-02-23T14:47:19.543Z,10.30
2019-02-23T14:50:27.172Z,12.33
2019-02-23T14:53:34.486Z,13.40
2019-02-23T14:56:42.135Z,13.53
2019-02-23T14:59:49.523Z,14.50
2019-02-23T15:02:56.847Z,12.33
2019-02-23T15:05:57.380Z,7.70
2019-02-23T15:09:05.020Z,8.83
2019-02-23T15:12:12.606Z,13.47
2019-02-23T15:15:19.939Z,10.87
2019-02-23T15:18:27.487Z,10.73
2019-02-23T15:21:34.820Z,8.30
2019-02-23T15:24:42.348Z,8.97
2019-02-23T15:27:49.680Z,12.30
2019-02-23T15:30:57.087Z,11.93
2019-02-23T15:34:04.379Z,13.03
2019-02-23T15:37:01.452Z,8.13
2019-02-23T15:40:08.127Z,7.83
2019-02-23T15:43:15.507Z,8.50
2019-02-23T15:46:24.591Z,10.20
2019-02-23T15:49:32.782Z,12.27
2019-02-23T15:52:13.887Z,9.90
2019-02-23T15:54:54.355Z,12.00
2019-02-23T15:57:35.751Z,12.87
2019-02-23T16:00:16.857Z,12.67
2019-02-23T16:02:57.829Z,11.93
2019-02-23T16:05:27.143Z,10.43
2019-02-23T16:08:15.396Z,10.93
2019-02-23T16:11:03.711Z,11.60
2019-02-23T16:13:51.903Z,17.90
2019-02-23T16:16:40.403Z,17.60
2019-02-23T16:19:28.599Z,18.63
2019-02-23T16:21:57.992Z,74.03
2019-02-23T16:24:46.182Z,26.47
2019-02-23T16:27:34.683Z,23.47
2019-02-23T16:30:22.975Z,23.23
2019-02-23T16:33:11.212Z,21.37
2019-02-23T16:35:59.656Z,20.37
2019-02-23T16:38:47.975Z,14.67
2019-02-23T16:41:36.211Z,11.27
2019-02-23T16:44:24.408Z,11.30
2019-02-23T16:47:12.643Z,12.10
2019-02-23T16:50:00.829Z,9.73
2019-02-23T16:52:42.109Z,12.33
2019-02-23T16:55:22.648Z,13.63
2019-02-23T16:58:03.742Z,17.10
2019-02-23T17:00:44.581Z,13.20
2019-02-23T17:03:25.744Z,16.60
2019-02-23T17:06:06.401Z,14.40
2019-02-23T17:08:47.263Z,23.27
2019-02-23T17:11:28.035Z,22.10
2019-02-23T17:14:09.050Z,22.87
2019-02-23T17:16:50.083Z,22.50
2019-02-23T17:19:30.856Z,25.53
2019-02-23T17:22:11.654Z,28.37
2019-02-23T17:24:52.275Z,30.33
2019-02-23T17:27:36.837Z,32.60
2019-02-23T17:30:16.350Z,29.03
2019-02-23T17:32:56.923Z,23.30
2019-02-23T17:35:37.637Z,20.10
2019-02-23T17:38:18.666Z,17.93
2019-02-23T17:40:59.203Z,13.97
2019-02-23T17:43:40.305Z,16.67
2019-02-23T17:46:20.785Z,20.70
2019-02-23T17:49:01.431Z,23.23
2019-02-23T17:51:42.584Z,18.30
2019-02-23T17:54:23.260Z,20.20
2019-02-23T17:57:03.999Z,21.70
2019-02-23T17:59:44.452Z,21.13
2019-02-23T18:02:13.836Z,20.43
2019-02-23T18:05:02.299Z,22.63
2019-02-23T18:07:31.622Z,24.40
2019-02-23T18:10:19.895Z,27.00
2019-02-23T18:13:08.131Z,29.07
2019-02-23T18:15:48.924Z,27.90
2019-02-23T18:18:29.746Z,23.93
2019-02-23T18:21:10.556Z,23.47
2019-02-23T18:23:51.387Z,19.27
2019-02-23T18:26:32.175Z,32.77
2019-02-23T18:29:13.563Z,27.03
2019-02-23T18:31:54.428Z,23.23
2019-02-23T18:34:35.416Z,18.90
2019-02-23T18:37:16.400Z,23.27
2019-02-23T18:39:57.263Z,25.10
2019-02-23T18:42:37.914Z,18.43
2019-02-23T18:45:18.887Z,26.50
2019-02-23T18:48:00.303Z,23.30
2019-02-23T18:50:41.160Z,17.20
2019-02-23T18:53:10.326Z,20.63
2019-02-23T18:55:58.591Z,20.80
2019-02-23T18:58:46.764Z,18.90
2019-02-23T19:01:34.960Z,17.13
2019-02-23T19:04:23.207Z,17.17
2019-02-23T19:07:11.394Z,17.33
2019-02-23T19:09:59.636Z,20.03
2019-02-23T19:12:47.835Z,17.90
2019-02-23T19:15:36.127Z,19.70
2019-02-23T19:18:24.374Z,17.10
2019-02-23T19:20:53.451Z,18.30
2019-02-23T19:23:42.088Z,22.00
2019-02-23T19:26:37.802Z,22.47
2019-02-23T19:29:20.532Z,19.77
2019-02-23T19:32:09.064Z,22.20
2019-02-23T19:34:57.247Z,20.43
2019-02-23T19:37:45.488Z,23.47
2019-02-23T19:40:34.239Z,22.03
2019-02-23T19:43:22.783Z,23.13
2019-02-23T19:46:18.823Z,20.40
2019-02-23T19:49:07.074Z,21.50
2019-02-23T19:51:56.619Z,23.10
2019-02-23T19:54:45.247Z,20.00
2019-02-23T19:57:33.756Z,15.73
2019-02-23T20:00:22.071Z,16.33
2019-02-23T20:03:10.371Z,20.40
2019-02-23T20:05:58.691Z,20.47
2019-02-23T20:08:47.155Z,16.27
2019-02-23T20:11:35.479Z,19.47
2019-02-23T20:17:10.267Z,19.90
2019-02-23T20:19:51.296Z,18.27
2019-02-23T20:22:32.595Z,16.83
2019-02-23T20:25:13.543Z,18.13
2019-02-23T20:27:54.376Z,23.10
2019-02-23T20:30:35.747Z,18.70
2019-02-23T20:36:16.093Z,22.67
2019-02-23T20:38:57.807Z,19.03
2019-02-23T20:41:38.318Z,18.30
2019-02-23T20:44:19.032Z,16.60
2019-02-23T20:47:00.527Z,19.43
2019-02-23T20:49:41.593Z,29.30
2019-02-23T20:52:23.096Z,24.63
2019-02-23T20:55:03.891Z,24.50
2019-02-23T20:57:45.443Z,22.63
2019-02-23T21:00:26.785Z,17.10
2019-02-23T21:03:07.815Z,19.60
2019-02-23T21:05:48.423Z,14.97
2019-02-23T21:08:29.207Z,14.27
2019-02-23T21:11:10.391Z,16.23
2019-02-23T21:13:51.674Z,17.30
2019-02-23T21:16:20.907Z,17.00
2019-02-23T21:19:09.501Z,20.07
2019-02-23T21:21:57.951Z,16.47
2019-02-23T21:24:46.184Z,18.40
2019-02-23T21:27:34.419Z,21.53
2019-02-23T21:30:22.613Z,15.70
2019-02-23T21:33:10.847Z,16.10
2019-02-23T21:35:59.036Z,17.33
2019-02-23T21:38:47.575Z,21.43
2019-02-23T21:41:35.897Z,19.90
2019-02-23T21:44:05.449Z,19.87
2019-02-23T21:46:55.239Z,23.80
2019-02-23T21:49:43.704Z,18.93
2019-02-23T21:52:31.948Z,17.70
2019-02-23T21:55:20.164Z,17.07
2019-02-23T21:58:08.353Z,19.53
2019-02-23T22:00:56.600Z,17.90
2019-02-23T22:03:44.852Z,21.07
2019-02-23T22:06:33.084Z,25.47
2019-02-23T22:09:02.241Z,20.17
2019-02-23T22:11:51.004Z,21.83
2019-02-23T22:14:39.187Z,19.40
2019-02-23T22:17:23.016Z,17.73
2019-02-23T22:20:04.032Z,21.77
2019-02-23T22:22:45.480Z,20.70
2019-02-23T22:25:26.319Z,20.20
2019-02-23T22:28:07.823Z,24.83
2019-02-23T22:30:49.092Z,16.77
2019-02-23T22:33:30.068Z,22.73
2019-02-23T22:36:10.908Z,15.73
2019-02-23T22:38:51.892Z,19.90
2019-02-23T22:41:32.771Z,18.53
2019-02-23T22:44:14.172Z,18.47
2019-02-23T22:46:55.098Z,20.23
2019-02-23T22:49:36.080Z,16.73
2019-02-23T22:52:17.291Z,28.70
2019-02-23T22:54:58.151Z,51.73
2019-02-23T22:57:40.855Z,29.57
2019-02-23T23:00:28.187Z,31.80
2019-02-23T23:03:09.039Z,21.83
2019-02-23T23:05:49.975Z,20.10
2019-02-23T23:08:31.183Z,23.67
2019-02-23T23:11:11.719Z,24.73
2019-02-23T23:13:52.860Z,21.77
2019-02-23T23:16:33.608Z,23.53
2019-02-23T23:19:15.027Z,19.87
2019-02-23T23:21:55.956Z,23.30
2019-02-23T23:24:37.083Z,21.87
2019-02-23T23:27:17.728Z,24.60
2019-02-23T23:29:58.752Z,20.33
2019-02-23T23:32:40.171Z,21.60
2019-02-23T23:35:09.298Z,21.00
2019-02-23T23:37:57.516Z,19.60
2019-02-23T23:40:45.745Z,17.80
2019-02-23T23:43:34.196Z,24.10
2019-02-23T23:46:22.412Z,21.90
2019-02-23T23:49:10.948Z,19.50
2019-02-23T23:51:40.040Z,16.40
2019-02-23T23:54:28.251Z,16.10
2019-02-23T23:57:16.444Z,18.13
